sensor_id;sensor_type;location;lat;lon;timestamp;temperature;humidity
30304;DHT22;17112;48.636;10.152;2023-02-07T00:00:13;1.00;70.30
30304;DHT22;17112;48.636;10.152;2023-02-07T00:02:43;0.90;70.40
30304;DHT22;17112;48.636;10.152;2023-02-07T00:05:09;0.90;70.50
30304;DHT22;17112;48.636;10.152;2023-02-07T00:07:35;0.80;70.50
30304;DHT22;17112;48.636;10.152;2023-02-07T00:10:01;0.80;70.60
30304;DHT22;17112;48.636;10.152;2023-02-07T00:12:27;0.80;70.90
30304;DHT22;17112;48.636;10.152;2023-02-07T00:14:52;0.90;70.90
30304;DHT22;17112;48.636;10.152;2023-02-07T00:17:18;0.70;70.90
30304;DHT22;17112;48.636;10.152;2023-02-07T00:19:44;0.90;71.20
30304;DHT22;17112;48.636;10.152;2023-02-07T00:22:09;0.70;71.00
30304;DHT22;17112;48.636;10.152;2023-02-07T00:24:35;0.70;71.00
30304;DHT22;17112;48.636;10.152;2023-02-07T00:27:01;0.60;70.90
30304;DHT22;17112;48.636;10.152;2023-02-07T00:29:26;0.70;70.90
30304;DHT22;17112;48.636;10.152;2023-02-07T00:31:52;0.70;70.90
30304;DHT22;17112;48.636;10.152;2023-02-07T00:34:17;0.70;71.00
30304;DHT22;17112;48.636;10.152;2023-02-07T00:36:43;0.70;70.90
30304;DHT22;17112;48.636;10.152;2023-02-07T00:39:13;0.90;71.00
30304;DHT22;17112;48.636;10.152;2023-02-07T00:41:40;0.80;70.90
30304;DHT22;17112;48.636;10.152;2023-02-07T00:44:06;0.70;70.80
30304;DHT22;17112;48.636;10.152;2023-02-07T00:46:32;0.70;70.60
30304;DHT22;17112;48.636;10.152;2023-02-07T00:48:58;0.70;70.60
30304;DHT22;17112;48.636;10.152;2023-02-07T00:51:24;0.80;70.60
30304;DHT22;17112;48.636;10.152;2023-02-07T00:53:51;0.60;70.30
30304;DHT22;17112;48.636;10.152;2023-02-07T00:56:19;0.60;70.20
30304;DHT22;17112;48.636;10.152;2023-02-07T00:58:45;0.60;70.10
30304;DHT22;17112;48.636;10.152;2023-02-07T01:01:12;0.70;70.00
30304;DHT22;17112;48.636;10.152;2023-02-07T01:03:38;0.70;70.00
30304;DHT22;17112;48.636;10.152;2023-02-07T01:06:04;0.50;69.80
30304;DHT22;17112;48.636;10.152;2023-02-07T01:08:30;0.50;69.90
30304;DHT22;17112;48.636;10.152;2023-02-07T01:10:56;0.50;69.80
30304;DHT22;17112;48.636;10.152;2023-02-07T01:13:21;0.40;69.80
30304;DHT22;17112;48.636;10.152;2023-02-07T01:15:49;0.60;69.90
30304;DHT22;17112;48.636;10.152;2023-02-07T01:18:14;0.30;69.70
30304;DHT22;17112;48.636;10.152;2023-02-07T01:20:40;0.30;69.70
30304;DHT22;17112;48.636;10.152;2023-02-07T01:23:06;0.20;69.70
30304;DHT22;17112;48.636;10.152;2023-02-07T01:25:32;0.20;69.70
30304;DHT22;17112;48.636;10.152;2023-02-07T01:27:58;0.20;69.70
30304;DHT22;17112;48.636;10.152;2023-02-07T01:30:23;0.10;69.60
30304;DHT22;17112;48.636;10.152;2023-02-07T01:32:49;0.10;69.70
30304;DHT22;17112;48.636;10.152;2023-02-07T01:35:15;0.30;69.90
30304;DHT22;17112;48.636;10.152;2023-02-07T01:37:40;0.00;69.60
30304;DHT22;17112;48.636;10.152;2023-02-07T01:40:07;0.00;69.70
30304;DHT22;17112;48.636;10.152;2023-02-07T01:42:32;0.00;69.60
30304;DHT22;17112;48.636;10.152;2023-02-07T01:45:02;0.10;69.70
30304;DHT22;17112;48.636;10.152;2023-02-07T01:47:29;-0.10;69.60
30304;DHT22;17112;48.636;10.152;2023-02-07T01:49:56;-0.10;69.60
30304;DHT22;17112;48.636;10.152;2023-02-07T01:52:27;-0.10;69.60
30304;DHT22;17112;48.636;10.152;2023-02-07T01:54:58;0.00;69.60
30304;DHT22;17112;48.636;10.152;2023-02-07T01:57:25;-0.20;69.60
30304;DHT22;17112;48.636;10.152;2023-02-07T01:59:54;-0.20;69.50
30304;DHT22;17112;48.636;10.152;2023-02-07T02:02:21;-0.20;69.50
30304;DHT22;17112;48.636;10.152;2023-02-07T02:04:50;-0.20;69.50
30304;DHT22;17112;48.636;10.152;2023-02-07T02:07:18;-0.20;69.50
30304;DHT22;17112;48.636;10.152;2023-02-07T02:09:44;-0.30;69.30
30304;DHT22;17112;48.636;10.152;2023-02-07T02:12:50;-0.30;69.30
30304;DHT22;17112;48.636;10.152;2023-02-07T02:15:32;-0.30;69.50
30304;DHT22;17112;48.636;10.152;2023-02-07T02:34:29;-0.50;69.50
30304;DHT22;17112;48.636;10.152;2023-02-07T02:40:05;-0.50;69.30
30304;DHT22;17112;48.636;10.152;2023-02-07T02:43:02;-0.40;69.50
30304;DHT22;17112;48.636;10.152;2023-02-07T02:45:35;-0.60;69.20
30304;DHT22;17112;48.636;10.152;2023-02-07T02:48:05;-0.60;69.20
30304;DHT22;17112;48.636;10.152;2023-02-07T02:50:33;-0.50;69.30
30304;DHT22;17112;48.636;10.152;2023-02-07T02:52:59;-0.70;69.20
30304;DHT22;17112;48.636;10.152;2023-02-07T03:01:41;-0.70;69.20
30304;DHT22;17112;48.636;10.152;2023-02-07T03:09:57;-0.80;68.80
30304;DHT22;17112;48.636;10.152;2023-02-07T03:12:42;-0.80;69.10
30304;DHT22;17112;48.636;10.152;2023-02-07T03:17:58;-0.90;69.20
30304;DHT22;17112;48.636;10.152;2023-02-07T03:20:29;-0.90;69.20
30304;DHT22;17112;48.636;10.152;2023-02-07T03:22:59;-0.90;69.20
30304;DHT22;17112;48.636;10.152;2023-02-07T03:25:26;-0.90;69.20
30304;DHT22;17112;48.636;10.152;2023-02-07T03:27:54;-0.70;69.40
30304;DHT22;17112;48.636;10.152;2023-02-07T03:30:22;-0.90;69.20
30304;DHT22;17112;48.636;10.152;2023-02-07T03:32:53;-1.00;69.10
30304;DHT22;17112;48.636;10.152;2023-02-07T03:35:32;-1.00;69.10
30304;DHT22;17112;48.636;10.152;2023-02-07T03:38:01;-1.00;69.20
30304;DHT22;17112;48.636;10.152;2023-02-07T03:40:36;-1.00;69.20
30304;DHT22;17112;48.636;10.152;2023-02-07T03:45:37;-1.10;69.10
30304;DHT22;17112;48.636;10.152;2023-02-07T03:48:03;-1.10;69.10
30304;DHT22;17112;48.636;10.152;2023-02-07T03:50:28;-1.10;69.10
30304;DHT22;17112;48.636;10.152;2023-02-07T03:52:54;-1.10;69.10
30304;DHT22;17112;48.636;10.152;2023-02-07T03:55:20;-1.20;69.00
30304;DHT22;17112;48.636;10.152;2023-02-07T03:57:45;-0.90;69.30
30304;DHT22;17112;48.636;10.152;2023-02-07T04:00:11;-1.20;69.10
30304;DHT22;17112;48.636;10.152;2023-02-07T04:02:37;-1.20;69.10
30304;DHT22;17112;48.636;10.152;2023-02-07T04:05:03;-1.20;69.20
30304;DHT22;17112;48.636;10.152;2023-02-07T04:07:29;-1.20;69.10
30304;DHT22;17112;48.636;10.152;2023-02-07T04:09:54;-1.20;69.20
30304;DHT22;17112;48.636;10.152;2023-02-07T04:12:20;-1.20;69.10
30304;DHT22;17112;48.636;10.152;2023-02-07T04:14:46;-1.30;69.10
30304;DHT22;17112;48.636;10.152;2023-02-07T04:17:11;-1.30;69.00
30304;DHT22;17112;48.636;10.152;2023-02-07T04:19:37;-1.30;68.90
30304;DHT22;17112;48.636;10.152;2023-02-07T04:22:03;-1.30;68.90
30304;DHT22;17112;48.636;10.152;2023-02-07T04:24:29;-1.30;68.90
30304;DHT22;17112;48.636;10.152;2023-02-07T04:26:57;-1.40;68.80
30304;DHT22;17112;48.636;10.152;2023-02-07T04:29:23;-1.40;68.90
30304;DHT22;17112;48.636;10.152;2023-02-07T04:31:49;-1.40;68.70
30304;DHT22;17112;48.636;10.152;2023-02-07T04:34:14;-1.40;68.90
30304;DHT22;17112;48.636;10.152;2023-02-07T04:36:40;-1.40;68.90
30304;DHT22;17112;48.636;10.152;2023-02-07T04:39:06;-1.40;69.00
30304;DHT22;17112;48.636;10.152;2023-02-07T04:41:31;-1.50;68.90
30304;DHT22;17112;48.636;10.152;2023-02-07T04:43:57;-1.50;69.60
30304;DHT22;17112;48.636;10.152;2023-02-07T04:46:23;-1.50;68.90
30304;DHT22;17112;48.636;10.152;2023-02-07T04:48:48;-1.50;68.80
30304;DHT22;17112;48.636;10.152;2023-02-07T04:51:14;-1.50;68.90
30304;DHT22;17112;48.636;10.152;2023-02-07T04:53:40;-1.60;68.80
30304;DHT22;17112;48.636;10.152;2023-02-07T04:56:06;-1.60;68.80
30304;DHT22;17112;48.636;10.152;2023-02-07T04:58:32;-1.60;68.90
30304;DHT22;17112;48.636;10.152;2023-02-07T05:00:57;-1.60;69.00
30304;DHT22;17112;48.636;10.152;2023-02-07T05:03:23;-1.60;69.00
30304;DHT22;17112;48.636;10.152;2023-02-07T05:05:52;-1.70;69.00
30304;DHT22;17112;48.636;10.152;2023-02-07T05:08:18;-1.70;69.00
30304;DHT22;17112;48.636;10.152;2023-02-07T05:10:44;-1.70;69.00
30304;DHT22;17112;48.636;10.152;2023-02-07T05:13:10;-1.70;69.00
30304;DHT22;17112;48.636;10.152;2023-02-07T05:15:36;-1.70;69.00
30304;DHT22;17112;48.636;10.152;2023-02-07T05:18:01;-1.80;69.00
30304;DHT22;17112;48.636;10.152;2023-02-07T05:20:27;-1.80;69.00
30304;DHT22;17112;48.636;10.152;2023-02-07T05:22:53;-1.70;69.00
30304;DHT22;17112;48.636;10.152;2023-02-07T05:25:18;-1.80;68.90
30304;DHT22;17112;48.636;10.152;2023-02-07T05:27:44;-1.80;68.90
30304;DHT22;17112;48.636;10.152;2023-02-07T05:30:11;-1.80;68.90
30304;DHT22;17112;48.636;10.152;2023-02-07T05:32:37;-1.80;68.80
30304;DHT22;17112;48.636;10.152;2023-02-07T05:35:21;-1.90;68.80
30304;DHT22;17112;48.636;10.152;2023-02-07T05:37:47;-1.90;69.00
30304;DHT22;17112;48.636;10.152;2023-02-07T05:40:13;-1.90;69.00
30304;DHT22;17112;48.636;10.152;2023-02-07T05:42:39;-1.90;68.90
30304;DHT22;17112;48.636;10.152;2023-02-07T05:45:07;-1.90;68.90
30304;DHT22;17112;48.636;10.152;2023-02-07T05:47:33;-1.90;69.00
30304;DHT22;17112;48.636;10.152;2023-02-07T05:49:58;-1.90;69.10
30304;DHT22;17112;48.636;10.152;2023-02-07T05:52:24;-2.00;69.10
30304;DHT22;17112;48.636;10.152;2023-02-07T05:54:49;-2.00;69.20
30304;DHT22;17112;48.636;10.152;2023-02-07T05:57:15;-1.90;69.20
30304;DHT22;17112;48.636;10.152;2023-02-07T05:59:41;-2.00;69.00
30304;DHT22;17112;48.636;10.152;2023-02-07T06:02:06;-1.90;68.90
30304;DHT22;17112;48.636;10.152;2023-02-07T06:04:32;-2.00;68.90
30304;DHT22;17112;48.636;10.152;2023-02-07T06:06:58;-2.00;68.80
30304;DHT22;17112;48.636;10.152;2023-02-07T06:09:23;-2.00;68.90
30304;DHT22;17112;48.636;10.152;2023-02-07T06:11:49;-2.00;68.90
30304;DHT22;17112;48.636;10.152;2023-02-07T06:14:15;-2.00;69.00
30304;DHT22;17112;48.636;10.152;2023-02-07T06:16:41;-2.00;69.10
30304;DHT22;17112;48.636;10.152;2023-02-07T06:19:06;-2.00;69.10
30304;DHT22;17112;48.636;10.152;2023-02-07T06:21:32;-2.00;69.70
30304;DHT22;17112;48.636;10.152;2023-02-07T06:23:57;-2.00;68.80
30304;DHT22;17112;48.636;10.152;2023-02-07T06:26:23;-2.00;68.90
30304;DHT22;17112;48.636;10.152;2023-02-07T06:28:49;-2.00;68.80
30304;DHT22;17112;48.636;10.152;2023-02-07T06:31:14;-2.10;68.70
30304;DHT22;17112;48.636;10.152;2023-02-07T06:33:40;-2.10;68.80
30304;DHT22;17112;48.636;10.152;2023-02-07T06:36:06;-2.10;68.80
30304;DHT22;17112;48.636;10.152;2023-02-07T06:38:32;-2.10;68.80
30304;DHT22;17112;48.636;10.152;2023-02-07T06:40:57;-2.10;68.80
30304;DHT22;17112;48.636;10.152;2023-02-07T06:43:23;-2.10;68.80
30304;DHT22;17112;48.636;10.152;2023-02-07T06:45:48;-2.10;68.80
30304;DHT22;17112;48.636;10.152;2023-02-07T06:48:14;-2.10;68.90
30304;DHT22;17112;48.636;10.152;2023-02-07T06:50:40;-2.10;68.90
30304;DHT22;17112;48.636;10.152;2023-02-07T06:53:05;-2.10;69.00
30304;DHT22;17112;48.636;10.152;2023-02-07T06:55:35;-2.10;68.80
30304;DHT22;17112;48.636;10.152;2023-02-07T06:58:01;-2.10;68.50
30304;DHT22;17112;48.636;10.152;2023-02-07T07:00:26;-2.00;68.90
30304;DHT22;17112;48.636;10.152;2023-02-07T07:02:52;-2.20;68.90
30304;DHT22;17112;48.636;10.152;2023-02-07T07:05:18;-2.20;68.90
30304;DHT22;17112;48.636;10.152;2023-02-07T07:07:44;-2.10;69.00
30304;DHT22;17112;48.636;10.152;2023-02-07T07:10:10;-2.10;69.10
30304;DHT22;17112;48.636;10.152;2023-02-07T07:12:35;-2.10;69.10
30304;DHT22;17112;48.636;10.152;2023-02-07T07:15:01;-2.10;69.20
30304;DHT22;17112;48.636;10.152;2023-02-07T07:17:27;-2.00;69.90
30304;DHT22;17112;48.636;10.152;2023-02-07T07:19:53;-2.00;69.20
30304;DHT22;17112;48.636;10.152;2023-02-07T07:22:19;-1.90;69.20
30304;DHT22;17112;48.636;10.152;2023-02-07T07:24:45;-1.90;69.10
30304;DHT22;17112;48.636;10.152;2023-02-07T07:27:11;-1.80;69.20
30304;DHT22;17112;48.636;10.152;2023-02-07T07:29:37;-1.80;69.00
30304;DHT22;17112;48.636;10.152;2023-02-07T07:32:03;-1.70;69.00
30304;DHT22;17112;48.636;10.152;2023-02-07T07:34:29;-1.70;69.00
30304;DHT22;17112;48.636;10.152;2023-02-07T07:36:54;-1.60;69.10
30304;DHT22;17112;48.636;10.152;2023-02-07T07:39:22;-1.50;69.10
30304;DHT22;17112;48.636;10.152;2023-02-07T07:41:48;-1.50;69.00
30304;DHT22;17112;48.636;10.152;2023-02-07T07:44:13;-1.40;68.90
30304;DHT22;17112;48.636;10.152;2023-02-07T07:46:39;-1.30;68.80
30304;DHT22;17112;48.636;10.152;2023-02-07T07:49:05;-1.30;68.70
30304;DHT22;17112;48.636;10.152;2023-02-07T07:51:30;-1.20;68.50
30304;DHT22;17112;48.636;10.152;2023-02-07T07:53:56;-1.10;68.40
30304;DHT22;17112;48.636;10.152;2023-02-07T07:56:22;-1.10;68.30
30304;DHT22;17112;48.636;10.152;2023-02-07T07:58:47;-1.00;68.40
30304;DHT22;17112;48.636;10.152;2023-02-07T08:01:13;-0.90;68.40
30304;DHT22;17112;48.636;10.152;2023-02-07T08:03:39;-0.90;68.40
30304;DHT22;17112;48.636;10.152;2023-02-07T08:06:05;-0.50;68.40
30304;DHT22;17112;48.636;10.152;2023-02-07T08:08:31;-0.70;68.20
30304;DHT22;17112;48.636;10.152;2023-02-07T08:11:02;-0.60;68.00
30304;DHT22;17112;48.636;10.152;2023-02-07T08:13:27;-0.50;68.60
30304;DHT22;17112;48.636;10.152;2023-02-07T08:15:53;-0.20;68.10
30304;DHT22;17112;48.636;10.152;2023-02-07T08:18:19;-0.20;68.10
30304;DHT22;17112;48.636;10.152;2023-02-07T08:20:44;-0.20;67.90
30304;DHT22;17112;48.636;10.152;2023-02-07T08:23:10;-0.10;67.80
30304;DHT22;17112;48.636;10.152;2023-02-07T08:25:36;0.00;67.90
30304;DHT22;17112;48.636;10.152;2023-02-07T08:28:02;0.20;67.90
30304;DHT22;17112;48.636;10.152;2023-02-07T08:30:28;0.30;67.60
30304;DHT22;17112;48.636;10.152;2023-02-07T08:32:54;0.40;67.30
30304;DHT22;17112;48.636;10.152;2023-02-07T08:35:20;0.60;67.00
30304;DHT22;17112;48.636;10.152;2023-02-07T08:37:46;0.70;67.00
30304;DHT22;17112;48.636;10.152;2023-02-07T08:40:12;0.80;66.60
30304;DHT22;17112;48.636;10.152;2023-02-07T08:42:37;0.90;66.40
30304;DHT22;17112;48.636;10.152;2023-02-07T08:45:03;1.00;66.00
30304;DHT22;17112;48.636;10.152;2023-02-07T08:47:30;1.10;65.90
30304;DHT22;17112;48.636;10.152;2023-02-07T08:49:56;1.20;66.30
30304;DHT22;17112;48.636;10.152;2023-02-07T08:52:22;1.30;66.10
30304;DHT22;17112;48.636;10.152;2023-02-07T08:54:48;1.30;65.90
30304;DHT22;17112;48.636;10.152;2023-02-07T08:57:14;1.50;65.90
30304;DHT22;17112;48.636;10.152;2023-02-07T08:59:40;1.60;65.80
30304;DHT22;17112;48.636;10.152;2023-02-07T09:02:06;1.70;65.90
30304;DHT22;17112;48.636;10.152;2023-02-07T09:04:32;1.80;65.60
30304;DHT22;17112;48.636;10.152;2023-02-07T09:06:57;1.90;65.40
30304;DHT22;17112;48.636;10.152;2023-02-07T09:09:23;2.00;65.40
30304;DHT22;17112;48.636;10.152;2023-02-07T09:11:49;2.10;65.30
30304;DHT22;17112;48.636;10.152;2023-02-07T09:14:16;2.20;65.10
30304;DHT22;17112;48.636;10.152;2023-02-07T09:16:41;2.30;65.00
30304;DHT22;17112;48.636;10.152;2023-02-07T09:19:07;2.40;64.90
30304;DHT22;17112;48.636;10.152;2023-02-07T09:21:33;2.50;64.90
30304;DHT22;17112;48.636;10.152;2023-02-07T09:23:58;2.60;64.50
30304;DHT22;17112;48.636;10.152;2023-02-07T09:26:24;2.70;64.60
30304;DHT22;17112;48.636;10.152;2023-02-07T09:28:55;2.80;64.70
30304;DHT22;17112;48.636;10.152;2023-02-07T09:31:21;2.80;64.10
30304;DHT22;17112;48.636;10.152;2023-02-07T09:33:49;2.90;63.60
30304;DHT22;17112;48.636;10.152;2023-02-07T09:36:18;3.00;63.80
30304;DHT22;17112;48.636;10.152;2023-02-07T09:38:44;3.10;62.80
30304;DHT22;17112;48.636;10.152;2023-02-07T09:44:15;3.20;61.70
30304;DHT22;17112;48.636;10.152;2023-02-07T09:47:03;3.40;62.50
30304;DHT22;17112;48.636;10.152;2023-02-07T09:51:59;3.30;62.80
30304;DHT22;17112;48.636;10.152;2023-02-07T09:54:34;3.30;62.60
30304;DHT22;17112;48.636;10.152;2023-02-07T09:57:06;3.30;62.60
30304;DHT22;17112;48.636;10.152;2023-02-07T10:02:00;3.40;62.90
30304;DHT22;17112;48.636;10.152;2023-02-07T10:04:35;3.60;62.90
30304;DHT22;17112;48.636;10.152;2023-02-07T10:07:03;3.50;62.40
30304;DHT22;17112;48.636;10.152;2023-02-07T10:09:35;3.60;62.40
30304;DHT22;17112;48.636;10.152;2023-02-07T10:20:40;3.80;61.00
30304;DHT22;17112;48.636;10.152;2023-02-07T10:29:06;3.90;60.80
30304;DHT22;17112;48.636;10.152;2023-02-07T10:31:42;4.00;60.70
30304;DHT22;17112;48.636;10.152;2023-02-07T10:34:12;4.00;61.50
30304;DHT22;17112;48.636;10.152;2023-02-07T10:36:44;4.10;61.40
30304;DHT22;17112;48.636;10.152;2023-02-07T10:41:55;4.30;61.50
30304;DHT22;17112;48.636;10.152;2023-02-07T10:44:22;4.30;61.40
30304;DHT22;17112;48.636;10.152;2023-02-07T10:47:01;4.40;61.70
30304;DHT22;17112;48.636;10.152;2023-02-07T10:49:31;4.50;60.80
30304;DHT22;17112;48.636;10.152;2023-02-07T10:52:28;4.60;61.10
30304;DHT22;17112;48.636;10.152;2023-02-07T10:54:59;4.70;60.00
30304;DHT22;17112;48.636;10.152;2023-02-07T10:57:26;4.80;61.30
30304;DHT22;17112;48.636;10.152;2023-02-07T11:00:28;4.90;60.80
30304;DHT22;17112;48.636;10.152;2023-02-07T11:03:13;5.10;59.50
30304;DHT22;17112;48.636;10.152;2023-02-07T11:08:28;5.20;59.70
30304;DHT22;17112;48.636;10.152;2023-02-07T11:10:59;5.20;59.80
30304;DHT22;17112;48.636;10.152;2023-02-07T11:13:47;5.30;59.60
30304;DHT22;17112;48.636;10.152;2023-02-07T11:16:16;5.40;59.80
30304;DHT22;17112;48.636;10.152;2023-02-07T11:18:46;5.40;59.60
30304;DHT22;17112;48.636;10.152;2023-02-07T11:21:34;5.50;59.70
30304;DHT22;17112;48.636;10.152;2023-02-07T11:24:15;5.60;59.10
30304;DHT22;17112;48.636;10.152;2023-02-07T11:26:54;5.70;59.30
30304;DHT22;17112;48.636;10.152;2023-02-07T11:29:21;5.70;58.70
30304;DHT22;17112;48.636;10.152;2023-02-07T11:31:51;5.80;59.50
30304;DHT22;17112;48.636;10.152;2023-02-07T11:36:53;6.00;58.50
30304;DHT22;17112;48.636;10.152;2023-02-07T11:39:21;6.00;58.80
30304;DHT22;17112;48.636;10.152;2023-02-07T11:41:58;6.10;58.40
30304;DHT22;17112;48.636;10.152;2023-02-07T11:44:26;6.10;57.50
30304;DHT22;17112;48.636;10.152;2023-02-07T11:46:54;6.10;57.90
30304;DHT22;17112;48.636;10.152;2023-02-07T11:49:38;6.10;58.00
30304;DHT22;17112;48.636;10.152;2023-02-07T11:52:05;6.10;57.70
30304;DHT22;17112;48.636;10.152;2023-02-07T11:54:31;6.20;58.60
30304;DHT22;17112;48.636;10.152;2023-02-07T11:57:13;6.30;58.50
30304;DHT22;17112;48.636;10.152;2023-02-07T12:00:34;6.30;57.20
30304;DHT22;17112;48.636;10.152;2023-02-07T12:03:06;6.40;57.10
30304;DHT22;17112;48.636;10.152;2023-02-07T12:05:44;6.50;57.70
30304;DHT22;17112;48.636;10.152;2023-02-07T12:08:15;6.60;57.50
30304;DHT22;17112;48.636;10.152;2023-02-07T12:10:48;6.60;57.80
30304;DHT22;17112;48.636;10.152;2023-02-07T12:13:20;6.70;57.80
30304;DHT22;17112;48.636;10.152;2023-02-07T12:15:57;6.80;57.50
30304;DHT22;17112;48.636;10.152;2023-02-07T12:18:32;6.90;57.60
30304;DHT22;17112;48.636;10.152;2023-02-07T12:21:18;7.00;57.30
30304;DHT22;17112;48.636;10.152;2023-02-07T12:26:46;7.10;56.40
30304;DHT22;17112;48.636;10.152;2023-02-07T12:32:04;7.30;57.60
30304;DHT22;17112;48.636;10.152;2023-02-07T12:34:51;7.40;56.20
30304;DHT22;17112;48.636;10.152;2023-02-07T12:40:13;7.50;56.40
30304;DHT22;17112;48.636;10.152;2023-02-07T12:42:57;7.50;55.60
30304;DHT22;17112;48.636;10.152;2023-02-07T13:12:46;7.40;53.90
30304;DHT22;17112;48.636;10.152;2023-02-07T13:15:21;7.30;53.60
30304;DHT22;17112;48.636;10.152;2023-02-07T13:21:03;7.30;54.10
30304;DHT22;17112;48.636;10.152;2023-02-07T13:23:35;7.20;52.80
30304;DHT22;17112;48.636;10.152;2023-02-07T13:26:10;7.20;54.40
30304;DHT22;17112;48.636;10.152;2023-02-07T13:31:15;7.20;53.90
30304;DHT22;17112;48.636;10.152;2023-02-07T13:33:42;7.20;54.60
30304;DHT22;17112;48.636;10.152;2023-02-07T13:36:42;7.20;54.60
30304;DHT22;17112;48.636;10.152;2023-02-07T13:43:09;7.40;53.80
30304;DHT22;17112;48.636;10.152;2023-02-07T13:55:53;7.50;52.50
30304;DHT22;17112;48.636;10.152;2023-02-07T14:06:41;7.50;52.50
30304;DHT22;17112;48.636;10.152;2023-02-07T14:09:19;7.60;53.20
30304;DHT22;17112;48.636;10.152;2023-02-07T14:11:49;7.60;52.50
30304;DHT22;17112;48.636;10.152;2023-02-07T14:14:38;7.60;53.10
30304;DHT22;17112;48.636;10.152;2023-02-07T14:17:07;7.70;52.80
30304;DHT22;17112;48.636;10.152;2023-02-07T14:30:12;7.80;52.10
30304;DHT22;17112;48.636;10.152;2023-02-07T14:33:02;7.80;52.40
30304;DHT22;17112;48.636;10.152;2023-02-07T14:35:32;7.90;52.40
30304;DHT22;17112;48.636;10.152;2023-02-07T14:45:38;7.90;52.10
30304;DHT22;17112;48.636;10.152;2023-02-07T14:48:06;7.80;52.10
30304;DHT22;17112;48.636;10.152;2023-02-07T14:50:52;7.80;51.60
30304;DHT22;17112;48.636;10.152;2023-02-07T14:53:18;7.80;50.30
30304;DHT22;17112;48.636;10.152;2023-02-07T14:55:52;7.70;51.60
30304;DHT22;17112;48.636;10.152;2023-02-07T14:58:25;7.60;51.30
30304;DHT22;17112;48.636;10.152;2023-02-07T15:00:56;7.50;51.40
30304;DHT22;17112;48.636;10.152;2023-02-07T15:03:29;7.40;51.60
30304;DHT22;17112;48.636;10.152;2023-02-07T15:05:59;7.30;52.20
30304;DHT22;17112;48.636;10.152;2023-02-07T15:08:30;7.10;51.50
30304;DHT22;17112;48.636;10.152;2023-02-07T15:11:08;7.00;51.40
30304;DHT22;17112;48.636;10.152;2023-02-07T15:13:41;6.80;51.10
30304;DHT22;17112;48.636;10.152;2023-02-07T15:21:24;6.30;51.40
30304;DHT22;17112;48.636;10.152;2023-02-07T15:24:02;6.10;50.90
30304;DHT22;17112;48.636;10.152;2023-02-07T15:26:28;6.00;50.60
30304;DHT22;17112;48.636;10.152;2023-02-07T15:28:57;5.80;51.20
30304;DHT22;17112;48.636;10.152;2023-02-07T15:31:24;5.60;50.80
30304;DHT22;17112;48.636;10.152;2023-02-07T15:33:52;5.50;50.60
30304;DHT22;17112;48.636;10.152;2023-02-07T15:36:40;5.30;51.50
30304;DHT22;17112;48.636;10.152;2023-02-07T15:39:16;5.20;51.30
30304;DHT22;17112;48.636;10.152;2023-02-07T15:41:47;5.10;51.80
30304;DHT22;17112;48.636;10.152;2023-02-07T15:44:45;5.00;52.10
30304;DHT22;17112;48.636;10.152;2023-02-07T15:47:31;4.90;51.40
30304;DHT22;17112;48.636;10.152;2023-02-07T15:50:24;4.80;51.80
30304;DHT22;17112;48.636;10.152;2023-02-07T15:52:58;4.70;51.70
30304;DHT22;17112;48.636;10.152;2023-02-07T15:55:27;4.60;52.00
30304;DHT22;17112;48.636;10.152;2023-02-07T15:57:54;4.50;51.80
30304;DHT22;17112;48.636;10.152;2023-02-07T16:00:23;4.40;52.20
30304;DHT22;17112;48.636;10.152;2023-02-07T16:03:02;4.30;51.50
30304;DHT22;17112;48.636;10.152;2023-02-07T16:05:36;4.20;51.70
30304;DHT22;17112;48.636;10.152;2023-02-07T16:08:05;4.10;51.80
30304;DHT22;17112;48.636;10.152;2023-02-07T16:10:37;4.10;52.50
30304;DHT22;17112;48.636;10.152;2023-02-07T16:13:19;4.00;52.90
30304;DHT22;17112;48.636;10.152;2023-02-07T16:15:59;3.90;52.70
30304;DHT22;17112;48.636;10.152;2023-02-07T16:18:42;3.90;52.90
30304;DHT22;17112;48.636;10.152;2023-02-07T16:23:42;3.70;53.10
30304;DHT22;17112;48.636;10.152;2023-02-07T16:26:09;3.80;52.90
30304;DHT22;17112;48.636;10.152;2023-02-07T16:28:35;3.70;53.20
30304;DHT22;17112;48.636;10.152;2023-02-07T16:31:01;3.50;53.10
30304;DHT22;17112;48.636;10.152;2023-02-07T16:33:26;3.50;53.00
30304;DHT22;17112;48.636;10.152;2023-02-07T16:35:52;3.50;53.00
30304;DHT22;17112;48.636;10.152;2023-02-07T16:38:18;3.40;53.30
30304;DHT22;17112;48.636;10.152;2023-02-07T16:40:43;3.30;53.50
30304;DHT22;17112;48.636;10.152;2023-02-07T16:43:53;3.40;53.70
30304;DHT22;17112;48.636;10.152;2023-02-07T16:46:12;3.20;53.60
30304;DHT22;17112;48.636;10.152;2023-02-07T16:48:38;3.20;54.10
30304;DHT22;17112;48.636;10.152;2023-02-07T16:51:03;3.10;54.30
30304;DHT22;17112;48.636;10.152;2023-02-07T16:53:29;3.10;54.30
30304;DHT22;17112;48.636;10.152;2023-02-07T16:55:56;3.00;54.50
30304;DHT22;17112;48.636;10.152;2023-02-07T16:58:31;2.90;54.60
30304;DHT22;17112;48.636;10.152;2023-02-07T17:00:57;2.90;54.60
30304;DHT22;17112;48.636;10.152;2023-02-07T17:03:23;2.80;54.40
30304;DHT22;17112;48.636;10.152;2023-02-07T17:05:49;2.80;54.80
30304;DHT22;17112;48.636;10.152;2023-02-07T17:08:17;2.70;55.00
30304;DHT22;17112;48.636;10.152;2023-02-07T17:11:05;2.60;55.20
30304;DHT22;17112;48.636;10.152;2023-02-07T17:13:31;2.60;55.30
30304;DHT22;17112;48.636;10.152;2023-02-07T17:15:57;2.50;55.60
30304;DHT22;17112;48.636;10.152;2023-02-07T17:18:27;2.50;55.70
30304;DHT22;17112;48.636;10.152;2023-02-07T17:20:52;2.40;56.30
30304;DHT22;17112;48.636;10.152;2023-02-07T17:23:18;2.40;55.90
30304;DHT22;17112;48.636;10.152;2023-02-07T17:25:45;2.30;56.10
30304;DHT22;17112;48.636;10.152;2023-02-07T17:28:13;2.30;56.20
30304;DHT22;17112;48.636;10.152;2023-02-07T17:30:42;2.40;56.40
30304;DHT22;17112;48.636;10.152;2023-02-07T17:33:08;2.20;56.40
30304;DHT22;17112;48.636;10.152;2023-02-07T17:35:35;2.10;56.60
30304;DHT22;17112;48.636;10.152;2023-02-07T17:38:01;2.10;56.60
30304;DHT22;17112;48.636;10.152;2023-02-07T17:40:38;2.10;56.80
30304;DHT22;17112;48.636;10.152;2023-02-07T17:43:06;2.00;56.80
30304;DHT22;17112;48.636;10.152;2023-02-07T17:45:33;2.00;57.00
30304;DHT22;17112;48.636;10.152;2023-02-07T17:47:59;2.00;57.10
30304;DHT22;17112;48.636;10.152;2023-02-07T17:50:37;1.90;57.20
30304;DHT22;17112;48.636;10.152;2023-02-07T17:53:06;1.90;57.20
30304;DHT22;17112;48.636;10.152;2023-02-07T17:55:32;1.90;57.40
30304;DHT22;17112;48.636;10.152;2023-02-07T17:57:59;1.90;58.00
30304;DHT22;17112;48.636;10.152;2023-02-07T18:00:31;1.80;57.50
30304;DHT22;17112;48.636;10.152;2023-02-07T18:02:57;1.80;57.50
30304;DHT22;17112;48.636;10.152;2023-02-07T18:05:23;1.70;57.60
30304;DHT22;17112;48.636;10.152;2023-02-07T18:07:49;1.70;57.60
30304;DHT22;17112;48.636;10.152;2023-02-07T18:10:30;1.70;58.20
30304;DHT22;17112;48.636;10.152;2023-02-07T18:12:56;1.60;57.70
30304;DHT22;17112;48.636;10.152;2023-02-07T18:15:22;1.80;57.90